createdAt,value
2023-03-17T00:00:21.824Z,73.36
2023-03-17T00:01:21.796Z,73.16
2023-03-17T00:02:21.845Z,73.26
2023-03-17T00:03:21.815Z,73.47
2023-03-17T00:04:21.777Z,73.68
2023-03-17T00:05:21.746Z,73.05
2023-03-17T00:06:21.752Z,72.81
2023-03-17T00:07:21.725Z,72.61
2023-03-17T00:08:21.718Z,72.61
2023-03-17T00:09:21.717Z,72.51
2023-03-17T00:10:21.705Z,72.41
2023-03-17T00:11:21.686Z,72.61
2023-03-17T00:12:21.677Z,72.81
2023-03-17T00:13:21.694Z,72.51
2023-03-17T00:14:21.649Z,72.41
2023-03-17T00:15:21.693Z,72.61
2023-03-17T00:16:21.701Z,72.81
2023-03-17T00:17:21.618Z,73.13
2023-03-17T00:18:21.589Z,73.16
2023-03-17T00:19:21.624Z,73.36
2023-03-17T00:20:21.578Z,73.16
2023-03-17T00:21:21.597Z,73.36
2023-03-17T00:22:21.550Z,73.57
2023-03-17T00:23:21.560Z,73.36
2023-03-17T00:24:21.540Z,73.68
2023-03-17T00:25:21.558Z,73.26
2023-03-17T00:26:21.516Z,73.68
2023-03-17T00:27:21.502Z,73.98
2023-03-17T00:28:21.488Z,73.50
2023-03-17T00:29:21.498Z,73.71
2023-03-17T00:30:21.463Z,73.60
2023-03-17T00:31:21.516Z,73.40
2023-03-17T00:32:21.444Z,73.50
2023-03-17T00:33:21.449Z,73.60
2023-03-17T00:34:21.427Z,73.36
2023-03-17T00:35:21.410Z,73.68
2023-03-17T00:36:21.390Z,73.71
2023-03-17T00:37:21.421Z,73.71
2023-03-17T00:38:21.390Z,73.91
2023-03-17T00:39:21.377Z,73.91
2023-03-17T00:40:21.357Z,74.22
2023-03-17T00:41:21.367Z,74.22
2023-03-17T00:42:21.350Z,74.74
2023-03-17T00:43:21.315Z,75.15
2023-03-17T00:44:21.306Z,75.05
2023-03-17T00:45:21.327Z,74.63
2023-03-17T00:46:21.304Z,74.77
2023-03-17T00:47:21.274Z,74.88
2023-03-17T00:48:21.278Z,75.39
2023-03-17T00:49:22.013Z,75.39
2023-03-17T00:50:21.240Z,75.60
2023-03-17T00:51:21.241Z,75.91
2023-03-17T00:52:21.206Z,75.91
2023-03-17T00:53:21.207Z,75.81
2023-03-17T00:54:21.213Z,75.91
2023-03-17T00:55:21.180Z,76.21
2023-03-17T00:56:21.167Z,76.01
2023-03-17T00:57:21.220Z,75.95
2023-03-17T00:58:21.141Z,76.15
2023-03-17T00:59:21.165Z,76.46
2023-03-17T01:00:21.114Z,76.67
2023-03-17T01:01:21.177Z,76.77
2023-03-17T01:02:21.148Z,76.87
2023-03-17T01:03:21.093Z,76.98
2023-03-17T01:04:21.134Z,76.98
2023-03-17T01:05:21.066Z,77.18
2023-03-17T01:06:21.065Z,77.59
2023-03-17T01:07:21.065Z,78.01
2023-03-17T01:08:21.034Z,78.21
2023-03-17T01:09:21.034Z,78.01
2023-03-17T01:10:21.027Z,78.01
2023-03-17T01:11:21.004Z,78.01
2023-03-17T01:12:20.986Z,77.94
2023-03-17T01:13:20.981Z,78.05
2023-03-17T01:14:20.990Z,78.14
2023-03-17T01:15:20.982Z,78.25
2023-03-17T01:16:20.977Z,78.35
2023-03-17T01:17:20.950Z,78.66
2023-03-17T01:18:20.969Z,79.08
2023-03-17T01:19:20.919Z,78.97
2023-03-17T01:20:20.901Z,78.87
2023-03-17T01:21:20.922Z,78.87
2023-03-17T01:22:20.874Z,78.97
2023-03-17T01:23:20.862Z,79.28
2023-03-17T01:24:20.851Z,79.42
2023-03-17T01:25:20.859Z,79.52
2023-03-17T01:26:20.853Z,79.52
2023-03-17T01:27:20.823Z,79.83
2023-03-17T01:28:20.802Z,80.04
2023-03-17T01:29:20.807Z,80.25
2023-03-17T01:30:20.792Z,80.25
2023-03-17T01:31:20.843Z,80.35
2023-03-17T01:32:20.786Z,80.66
2023-03-17T01:33:20.790Z,80.56
2023-03-17T01:34:20.752Z,80.39
2023-03-17T01:35:20.743Z,80.39
2023-03-17T01:36:20.769Z,80.49
2023-03-17T01:37:20.716Z,80.60
2023-03-17T01:38:20.703Z,80.70
2023-03-17T01:39:20.718Z,81.11
2023-03-17T01:40:20.683Z,81.32
2023-03-17T01:41:20.708Z,81.63
2023-03-17T01:42:20.668Z,81.52
2023-03-17T01:43:20.638Z,81.52
2023-03-17T01:44:20.648Z,81.94
2023-03-17T01:45:20.607Z,81.94
2023-03-17T01:46:20.617Z,82.04
2023-03-17T01:47:20.612Z,82.35
2023-03-17T01:48:20.584Z,82.56
2023-03-17T01:49:20.592Z,82.56
2023-03-17T01:50:20.568Z,82.29
2023-03-17T01:51:20.549Z,82.39
2023-03-17T01:52:20.543Z,82.39
2023-03-17T01:53:20.543Z,82.39
2023-03-17T01:54:20.565Z,82.50
2023-03-17T01:55:20.511Z,82.39
2023-03-17T01:56:20.502Z,82.29
2023-03-17T01:57:20.476Z,82.39
2023-03-17T01:58:20.488Z,82.39
2023-03-17T01:59:20.456Z,82.29
2023-03-17T02:00:20.459Z,82.29
2023-03-17T02:01:20.473Z,82.60
2023-03-17T02:02:20.432Z,82.60
2023-03-17T02:03:20.417Z,82.50
2023-03-17T02:04:20.455Z,82.39
2023-03-17T02:05:20.421Z,82.39
2023-03-17T02:06:20.407Z,82.60
2023-03-17T02:07:20.377Z,82.70
2023-03-17T02:08:20.364Z,82.60
2023-03-17T02:09:20.346Z,82.70
2023-03-17T02:10:20.367Z,82.70
2023-03-17T02:11:20.317Z,82.64
2023-03-17T02:12:20.333Z,82.53
2023-03-17T02:13:20.310Z,82.64
2023-03-17T02:14:20.309Z,82.74
2023-03-17T02:15:20.291Z,82.22
2023-03-17T02:16:20.279Z,81.81
2023-03-17T02:17:20.264Z,81.56
2023-03-17T02:18:20.280Z,81.35
2023-03-17T02:19:20.244Z,81.05
2023-03-17T02:20:20.277Z,80.84
2023-03-17T02:21:20.196Z,80.74
2023-03-17T02:22:20.222Z,80.74
2023-03-17T02:23:20.199Z,80.53
2023-03-17T02:24:20.175Z,80.39
2023-03-17T02:25:20.184Z,80.08
2023-03-17T02:26:20.197Z,79.97
2023-03-17T02:27:20.136Z,80.18
2023-03-17T02:28:20.149Z,80.49
2023-03-17T02:29:20.124Z,80.80
2023-03-17T02:30:20.147Z,81.15
2023-03-17T02:31:20.210Z,81.35
2023-03-17T02:32:20.109Z,81.46
2023-03-17T02:33:20.080Z,81.46
2023-03-17T02:34:20.079Z,81.67
2023-03-17T02:35:20.098Z,82.08
2023-03-17T02:36:20.085Z,82.18
2023-03-17T02:37:20.031Z,82.08
2023-03-17T02:38:20.024Z,82.08
2023-03-17T02:39:20.043Z,82.32
2023-03-17T02:40:20.198Z,82.43
2023-03-17T02:41:19.986Z,82.74
2023-03-17T02:42:19.992Z,82.95
2023-03-17T02:43:19.963Z,82.95
2023-03-17T02:44:19.959Z,82.95
2023-03-17T02:45:19.940Z,83.05
2023-03-17T02:46:19.973Z,83.19
2023-03-17T02:47:19.920Z,83.40
2023-03-17T02:48:19.937Z,83.50
2023-03-17T02:49:19.921Z,83.61
2023-03-17T02:50:19.893Z,83.81
2023-03-17T02:51:19.893Z,83.91
2023-03-17T02:52:19.880Z,84.33
2023-03-17T02:53:19.861Z,84.53
2023-03-17T02:54:19.842Z,84.64
2023-03-17T02:55:19.848Z,84.88
2023-03-17T02:56:20.200Z,85.09
2023-03-17T02:57:19.802Z,85.30
2023-03-17T02:58:19.795Z,85.40
2023-03-17T02:59:20.569Z,85.40
2023-03-17T03:00:19.790Z,85.30
2023-03-17T03:01:19.780Z,85.09
2023-03-17T03:02:19.832Z,84.78
2023-03-17T03:03:19.736Z,84.84
2023-03-17T03:04:19.738Z,84.53
2023-03-17T03:05:19.715Z,84.01
2023-03-17T03:06:19.716Z,83.50
2023-03-17T03:07:19.694Z,83.15
2023-03-17T03:08:19.704Z,82.95
2023-03-17T03:09:19.677Z,82.60
2023-03-17T03:10:19.674Z,81.98
2023-03-17T03:11:19.659Z,81.46
2023-03-17T03:12:19.647Z,80.90
2023-03-17T03:13:19.666Z,80.80
2023-03-17T03:14:19.623Z,80.29
2023-03-17T03:15:19.615Z,80.25
2023-03-17T03:16:19.716Z,79.32
2023-03-17T03:17:19.583Z,79.11
2023-03-17T03:18:19.603Z,78.87
2023-03-17T03:19:19.557Z,78.35
2023-03-17T03:20:19.562Z,77.63
2023-03-17T03:21:19.544Z,77.08
2023-03-17T03:22:19.546Z,77.08
2023-03-17T03:23:19.515Z,76.87
2023-03-17T03:24:19.545Z,76.46
2023-03-17T03:25:19.525Z,76.63
2023-03-17T03:26:19.496Z,76.21
2023-03-17T03:27:19.470Z,76.01
2023-03-17T03:28:19.464Z,75.91
2023-03-17T03:29:19.472Z,76.01
2023-03-17T03:30:19.464Z,75.60
2023-03-17T03:31:19.462Z,75.49
2023-03-17T03:32:19.424Z,75.49
2023-03-17T03:33:19.426Z,75.18
2023-03-17T03:34:19.416Z,74.88
2023-03-17T03:35:19.408Z,75.09
2023-03-17T03:36:19.377Z,74.98
2023-03-17T03:37:19.353Z,74.95
2023-03-17T03:38:19.363Z,75.29
2023-03-17T03:39:19.340Z,75.09
2023-03-17T03:40:19.348Z,74.57
2023-03-17T03:41:19.356Z,74.63
2023-03-17T03:42:19.304Z,74.53
2023-03-17T03:43:23.524Z,74.53
2023-03-17T03:44:19.282Z,74.33
2023-03-17T03:45:19.263Z,74.43
2023-03-17T03:46:19.321Z,74.63
2023-03-17T03:47:19.257Z,74.77
2023-03-17T03:48:19.256Z,74.77
2023-03-17T03:49:19.221Z,74.88
2023-03-17T03:50:19.240Z,74.57
2023-03-17T03:51:19.193Z,74.33
2023-03-17T03:52:19.195Z,74.33
2023-03-17T03:53:19.187Z,74.36
2023-03-17T03:54:19.174Z,74.46
2023-03-17T03:55:19.176Z,74.46
2023-03-17T03:56:19.149Z,74.26
2023-03-17T03:57:19.132Z,74.46
2023-03-17T03:58:19.136Z,74.36
2023-03-17T03:59:19.121Z,74.57
2023-03-17T04:00:19.104Z,74.88
2023-03-17T04:01:19.079Z,74.88
2023-03-17T04:02:19.180Z,74.88
2023-03-17T04:03:19.058Z,74.77
2023-03-17T04:04:19.105Z,74.98
2023-03-17T04:05:19.030Z,75.32
2023-03-17T04:06:19.045Z,75.84
2023-03-17T04:07:19.006Z,75.95
2023-03-17T04:08:19.031Z,76.04
2023-03-17T04:09:18.996Z,76.25
2023-03-17T04:10:18.979Z,76.50
2023-03-17T04:11:18.971Z,76.60
2023-03-17T04:12:19.173Z,76.81
2023-03-17T04:13:18.947Z,77.22
2023-03-17T04:14:18.952Z,77.56
2023-03-17T04:15:18.927Z,77.77
2023-03-17T04:16:19.013Z,77.98
2023-03-17T04:17:18.902Z,78.08
2023-03-17T04:18:18.922Z,78.53
2023-03-17T04:19:18.936Z,78.94
2023-03-17T04:20:18.894Z,79.46
2023-03-17T04:21:19.015Z,79.60
2023-03-17T04:22:18.884Z,80.01
2023-03-17T04:23:18.843Z,80.32
2023-03-17T04:24:18.850Z,80.43
2023-03-17T04:25:18.922Z,80.63
2023-03-17T04:26:18.854Z,80.88
2023-03-17T04:27:18.787Z,81.09
2023-03-17T04:28:19.739Z,81.09
2023-03-17T04:29:18.782Z,81.09
2023-03-17T04:30:18.816Z,81.09
2023-03-17T04:31:18.767Z,81.02
2023-03-17T04:32:18.739Z,81.02
2023-03-17T04:33:18.720Z,81.64
2023-03-17T04:34:18.754Z,81.95
2023-03-17T04:35:18.701Z,81.95
2023-03-17T04:36:18.783Z,82.05
2023-03-17T04:37:18.685Z,82.36
2023-03-17T04:38:18.664Z,82.67
2023-03-17T04:39:18.652Z,83.23
2023-03-17T04:40:18.650Z,83.54
2023-03-17T04:41:18.650Z,83.85
2023-03-17T04:42:18.641Z,84.27
2023-03-17T04:43:18.614Z,84.37
2023-03-17T04:44:18.612Z,84.47
2023-03-17T04:45:18.607Z,84.61
2023-03-17T04:46:18.587Z,84.72
2023-03-17T04:47:18.579Z,84.72
2023-03-17T04:48:18.582Z,84.72
2023-03-17T04:49:18.536Z,85.03
2023-03-17T04:50:18.530Z,85.34
2023-03-17T04:51:18.533Z,85.58
2023-03-17T04:52:18.519Z,85.48
2023-03-17T04:53:18.493Z,85.48
2023-03-17T04:54:18.492Z,85.38
2023-03-17T04:55:18.492Z,85.38
2023-03-17T04:56:18.481Z,85.58
2023-03-17T04:57:18.484Z,85.69
2023-03-17T04:58:29.894Z,85.69
2023-03-17T04:59:19.443Z,85.69
2023-03-17T05:00:18.422Z,85.89
2023-03-17T05:01:18.647Z,85.89
2023-03-17T05:02:18.445Z,85.89
2023-03-17T05:03:26.676Z,85.94
2023-03-17T05:04:31.170Z,85.94
2023-03-17T05:05:19.360Z,86.04
2023-03-17T05:06:18.367Z,86.04
2023-03-17T05:07:18.363Z,86.04
2023-03-17T05:08:18.353Z,86.04
2023-03-17T05:09:18.310Z,86.25
2023-03-17T05:10:18.334Z,86.35
2023-03-17T05:11:18.296Z,86.45
2023-03-17T05:12:18.306Z,86.55
2023-03-17T05:13:18.280Z,86.55
2023-03-17T05:14:18.292Z,86.66
2023-03-17T05:15:18.816Z,86.76
2023-03-17T05:16:18.296Z,86.91
2023-03-17T05:17:18.250Z,86.91
2023-03-17T05:18:18.221Z,87.01
2023-03-17T05:19:18.211Z,87.12
2023-03-17T05:20:18.222Z,87.43
2023-03-17T05:21:18.173Z,87.74
2023-03-17T05:22:18.187Z,88.05
2023-03-17T05:23:18.150Z,88.36
2023-03-17T05:24:18.160Z,88.57
2023-03-17T05:25:18.127Z,88.67
2023-03-17T05:26:18.140Z,88.67
2023-03-17T05:27:18.147Z,88.78
2023-03-17T05:28:18.120Z,88.88
2023-03-17T05:29:18.107Z,88.82
2023-03-17T05:30:18.136Z,88.82
2023-03-17T05:31:18.125Z,88.82
2023-03-17T05:32:18.067Z,88.82
2023-03-17T05:33:18.059Z,88.71
2023-03-17T05:34:18.048Z,88.71
2023-03-17T05:35:18.055Z,88.71
2023-03-17T05:36:18.020Z,88.71
2023-03-17T05:37:18.012Z,88.61
2023-03-17T05:38:18.037Z,88.61
2023-03-17T05:39:17.979Z,88.71
2023-03-17T05:40:17.978Z,88.71
2023-03-17T05:41:18.023Z,88.71
2023-03-17T05:42:17.950Z,88.71
2023-03-17T05:43:17.938Z,88.75
2023-03-17T05:44:17.929Z,88.75
2023-03-17T05:45:17.912Z,88.75
2023-03-17T05:46:20.235Z,88.75
2023-03-17T05:47:17.891Z,88.85
2023-03-17T05:48:17.962Z,88.85
2023-03-17T05:49:17.861Z,88.96
2023-03-17T05:50:17.862Z,89.06
2023-03-17T05:51:17.848Z,89.06
2023-03-17T05:52:17.873Z,89.17
2023-03-17T05:53:17.880Z,89.17
2023-03-17T05:54:17.812Z,89.06
2023-03-17T05:55:17.800Z,88.96
2023-03-17T05:56:17.791Z,88.85
2023-03-17T05:57:17.791Z,88.75
2023-03-17T05:58:17.784Z,88.54
2023-03-17T05:59:17.775Z,88.13
2023-03-17T06:00:17.763Z,87.92
2023-03-17T06:01:17.744Z,87.92
2023-03-17T06:02:17.754Z,87.57
2023-03-17T06:03:17.773Z,87.47
2023-03-17T06:04:17.731Z,87.47
2023-03-17T06:05:17.701Z,87.47
2023-03-17T06:06:17.677Z,87.47
2023-03-17T06:07:17.671Z,87.37
2023-03-17T06:08:17.700Z,87.37
2023-03-17T06:09:17.671Z,87.37
2023-03-17T06:10:17.970Z,87.47
2023-03-17T06:11:17.624Z,87.57
2023-03-17T06:12:17.604Z,87.68
2023-03-17T06:13:17.621Z,87.68
2023-03-17T06:14:17.599Z,87.78
2023-03-17T06:15:17.624Z,87.88
2023-03-17T06:16:17.628Z,87.99
2023-03-17T06:17:17.573Z,88.09
2023-03-17T06:18:17.544Z,88.09
2023-03-17T06:19:17.543Z,88.30
2023-03-17T06:20:17.556Z,88.40
2023-03-17T06:21:17.535Z,88.51
2023-03-17T06:22:17.520Z,88.61
2023-03-17T06:23:17.539Z,88.61
2023-03-17T06:24:17.472Z,88.82
2023-03-17T06:25:17.502Z,88.82
2023-03-17T06:26:17.465Z,88.92
2023-03-17T06:27:17.478Z,89.03
2023-03-17T06:28:17.433Z,89.03
2023-03-17T06:29:17.589Z,89.03
2023-03-17T06:30:17.392Z,89.03
2023-03-17T06:31:17.466Z,88.71
2023-03-17T06:32:20.950Z,88.51
2023-03-17T06:33:17.397Z,88.51
2023-03-17T06:34:17.392Z,88.57
2023-03-17T06:35:17.365Z,88.57
2023-03-17T06:36:17.395Z,88.57
2023-03-17T06:37:17.435Z,88.57
2023-03-17T06:38:17.324Z,88.57
2023-03-17T06:39:17.324Z,88.57
2023-03-17T06:40:17.291Z,88.67
2023-03-17T06:41:17.330Z,88.67
2023-03-17T06:42:17.286Z,88.67
2023-03-17T06:43:17.271Z,88.67
2023-03-17T06:44:17.256Z,88.46
2023-03-17T06:45:17.285Z,88.26
2023-03-17T06:46:17.277Z,88.15
2023-03-17T06:47:17.252Z,88.05
2023-03-17T06:48:17.225Z,88.15
2023-03-17T06:49:17.210Z,88.21
2023-03-17T06:50:17.185Z,88.32
2023-03-17T06:51:17.178Z,88.42
2023-03-17T06:52:17.153Z,88.42
2023-03-17T06:53:17.171Z,88.32
2023-03-17T06:54:17.131Z,88.21
2023-03-17T06:55:17.130Z,87.90
2023-03-17T06:56:29.172Z,87.90
2023-03-17T06:57:18.130Z,87.80
2023-03-17T06:58:17.096Z,87.49
2023-03-17T06:59:17.090Z,87.66
2023-03-17T07:00:17.072Z,87.87
2023-03-17T07:01:17.173Z,87.97
2023-03-17T07:02:17.061Z,88.18
2023-03-17T07:03:17.037Z,88.39
2023-03-17T07:04:17.060Z,88.39
2023-03-17T07:05:17.011Z,88.28
2023-03-17T07:06:17.012Z,88.18
2023-03-17T07:07:17.025Z,88.13
2023-03-17T07:08:16.971Z,88.24
2023-03-17T07:09:16.972Z,88.24
2023-03-17T07:10:16.968Z,88.34
2023-03-17T07:11:16.960Z,88.34
2023-03-17T07:12:16.932Z,88.24
2023-03-17T07:13:16.949Z,88.03
2023-03-17T07:14:16.910Z,87.88
2023-03-17T07:15:16.910Z,87.78
2023-03-17T07:16:16.986Z,87.68
2023-03-17T07:17:16.897Z,87.37
2023-03-17T07:18:16.918Z,87.23
2023-03-17T07:19:16.880Z,86.71
2023-03-17T07:20:16.853Z,86.40
2023-03-17T07:21:16.841Z,86.50
2023-03-17T07:22:16.845Z,86.25
2023-03-17T07:23:16.826Z,85.53
2023-03-17T07:24:16.811Z,85.42
2023-03-17T07:25:16.792Z,85.39
2023-03-17T07:26:16.795Z,85.39
2023-03-17T07:27:16.798Z,85.39
2023-03-17T07:28:16.751Z,85.08
2023-03-17T07:29:16.766Z,84.63
2023-03-17T07:30:16.738Z,84.00
2023-03-17T07:31:16.792Z,83.55
2023-03-17T07:32:16.744Z,83.14
2023-03-17T07:33:16.703Z,82.93
2023-03-17T07:34:16.689Z,82.59
2023-03-17T07:35:16.678Z,82.17
2023-03-17T07:36:16.667Z,81.82
2023-03-17T07:37:16.688Z,80.69
2023-03-17T07:38:16.627Z,80.04
2023-03-17T07:39:16.657Z,79.31
2023-03-17T07:40:16.618Z,78.86
2023-03-17T07:41:16.629Z,77.90
2023-03-17T07:42:16.589Z,77.28
2023-03-17T07:43:16.634Z,76.83
2023-03-17T07:44:16.571Z,76.21
2023-03-17T07:45:16.556Z,75.87
2023-03-17T07:46:16.651Z,75.46
2023-03-17T07:47:16.570Z,74.50
2023-03-17T07:48:16.562Z,73.54
2023-03-17T07:49:17.270Z,72.81
2023-03-17T07:50:16.559Z,72.68
2023-03-17T07:51:16.495Z,72.06
2023-03-17T07:52:16.537Z,71.93
2023-03-17T07:53:16.491Z,72.03
2023-03-17T07:54:16.457Z,71.83
2023-03-17T07:55:16.472Z,71.17
2023-03-17T07:56:16.450Z,71.28
2023-03-17T07:57:16.792Z,70.66
2023-03-17T07:58:16.419Z,70.04
2023-03-17T07:59:16.453Z,69.91
2023-03-17T08:00:16.384Z,70.12
2023-03-17T08:01:16.432Z,69.91
2023-03-17T08:02:16.473Z,70.01
2023-03-17T08:03:16.402Z,69.67
2023-03-17T08:04:16.356Z,69.37
2023-03-17T08:05:16.409Z,69.13
2023-03-17T08:06:16.317Z,68.51
2023-03-17T08:07:16.315Z,68.30
2023-03-17T08:08:16.323Z,68.10
2023-03-17T08:09:16.311Z,67.66
2023-03-17T08:10:16.270Z,68.27
2023-03-17T08:11:16.296Z,67.94
2023-03-17T08:12:16.266Z,67.43
2023-03-17T08:13:16.249Z,66.60
2023-03-17T08:14:16.241Z,66.88
2023-03-17T08:15:16.221Z,65.86
2023-03-17T08:16:16.252Z,65.86
2023-03-17T08:17:16.234Z,66.13
2023-03-17T08:18:16.212Z,66.03
2023-03-17T08:19:16.250Z,66.03
2023-03-17T08:20:16.161Z,65.83
2023-03-17T08:21:16.231Z,66.10
2023-03-17T08:22:16.140Z,66.10
2023-03-17T08:23:16.142Z,65.69
2023-03-17T08:24:16.118Z,65.80
2023-03-17T08:25:16.100Z,65.08
2023-03-17T08:26:16.173Z,65.25
2023-03-17T08:27:16.092Z,65.05
2023-03-17T08:28:16.080Z,64.64
2023-03-17T08:29:16.083Z,64.74
2023-03-17T08:30:16.050Z,64.81
2023-03-17T08:31:16.133Z,63.89
2023-03-17T08:32:16.058Z,63.86
2023-03-17T08:33:16.096Z,63.86
2023-03-17T08:34:16.043Z,62.74
2023-03-17T08:35:16.051Z,62.51
2023-03-17T08:36:15.992Z,63.22
2023-03-17T08:37:15.996Z,62.37
2023-03-17T08:38:15.973Z,62.68
2023-03-17T08:39:15.982Z,62.99
2023-03-17T08:40:15.946Z,62.96
2023-03-17T08:41:15.932Z,62.96
2023-03-17T08:42:15.917Z,62.45
2023-03-17T08:43:15.939Z,63.98
2023-03-17T08:44:15.904Z,63.13
2023-03-17T08:45:15.884Z,63.34
2023-03-17T08:46:15.938Z,61.68
2023-03-17T08:47:15.865Z,61.95
2023-03-17T08:48:15.870Z,60.73
2023-03-17T08:49:15.929Z,60.83
2023-03-17T08:50:15.825Z,60.22
2023-03-17T08:51:18.200Z,59.81
2023-03-17T08:52:15.821Z,59.78
2023-03-17T08:53:15.797Z,59.78
2023-03-17T08:54:15.795Z,59.28
2023-03-17T08:55:15.782Z,59.35
2023-03-17T08:56:15.753Z,59.14
2023-03-17T08:57:15.862Z,59.66
2023-03-17T08:58:15.736Z,59.48
2023-03-17T08:59:16.973Z,59.17
2023-03-17T09:00:15.725Z,59.14
2023-03-17T09:01:15.836Z,59.25
2023-03-17T09:02:15.746Z,58.94
2023-03-17T09:03:15.698Z,59.12
2023-03-17T09:04:15.679Z,58.81
2023-03-17T09:05:15.695Z,58.10
2023-03-17T09:06:15.660Z,58.51
2023-03-17T09:07:15.660Z,59.01
2023-03-17T09:08:15.684Z,58.71
2023-03-17T09:09:15.632Z,58.71
2023-03-17T09:10:15.632Z,58.51
2023-03-17T09:11:15.618Z,58.71
2023-03-17T09:12:15.596Z,58.00
2023-03-17T09:13:15.647Z,60.03
2023-03-17T09:14:15.557Z,58.71
2023-03-17T09:15:15.557Z,58.94
2023-03-17T09:16:15.535Z,58.94
2023-03-17T09:17:15.544Z,58.71
2023-03-17T09:18:15.533Z,58.07
2023-03-17T09:19:15.521Z,57.87
2023-03-17T09:20:15.497Z,58.38
2023-03-17T09:21:15.483Z,58.25
2023-03-17T09:22:15.646Z,58.15
2023-03-17T09:23:15.503Z,57.23
2023-03-17T09:24:15.460Z,57.23
2023-03-17T09:25:15.441Z,56.85
2023-03-17T09:26:15.587Z,57.06
2023-03-17T09:27:15.425Z,57.64
2023-03-17T09:28:15.418Z,57.84
2023-03-17T09:29:15.416Z,57.34
2023-03-17T09:30:15.391Z,57.92
2023-03-17T09:31:15.382Z,57.92
2023-03-17T09:32:15.365Z,57.18
2023-03-17T09:33:15.362Z,56.85
2023-03-17T09:34:15.367Z,56.65
2023-03-17T09:35:15.329Z,56.13
2023-03-17T09:36:15.337Z,56.74
2023-03-17T09:37:15.299Z,56.92
2023-03-17T09:38:15.289Z,56.41
2023-03-17T09:39:15.304Z,55.73
2023-03-17T09:40:15.257Z,56.85
2023-03-17T09:41:15.257Z,57.15
2023-03-17T09:42:15.236Z,56.92
2023-03-17T09:43:15.245Z,56.18
2023-03-17T09:44:15.217Z,55.25
2023-03-17T09:45:15.237Z,55.04
2023-03-17T09:46:15.266Z,55.12
2023-03-17T09:47:15.206Z,55.32
2023-03-17T09:48:15.169Z,54.79
2023-03-17T09:49:15.193Z,53.96
2023-03-17T09:50:15.169Z,53.65
2023-03-17T09:51:15.149Z,53.02
2023-03-17T09:52:15.155Z,53.45
2023-03-17T09:53:15.129Z,52.94
2023-03-17T09:54:15.116Z,53.55
2023-03-17T09:55:15.102Z,53.96
2023-03-17T09:56:15.089Z,52.74
2023-03-17T09:57:15.080Z,53.45
2023-03-17T09:58:15.094Z,52.26
2023-03-17T09:59:15.056Z,53.50
2023-03-17T10:00:15.062Z,53.47
2023-03-17T10:01:15.039Z,53.75
2023-03-17T10:02:15.040Z,53.02
2023-03-17T10:03:15.012Z,53.90
2023-03-17T10:04:16.942Z,52.16
2023-03-17T10:05:15.057Z,51.93
2023-03-17T10:06:14.978Z,51.71
2023-03-17T10:07:14.982Z,50.27
2023-03-17T10:08:29.570Z,50.07
2023-03-17T10:09:15.931Z,49.24
2023-03-17T10:10:14.923Z,49.46
2023-03-17T10:11:14.962Z,49.36
2023-03-17T10:12:15.608Z,49.56
2023-03-17T10:13:14.896Z,49.84
2023-03-17T10:14:14.877Z,50.15
2023-03-17T10:15:14.883Z,49.44
2023-03-17T10:16:14.890Z,49.74
2023-03-17T10:17:14.862Z,49.72
2023-03-17T10:18:14.844Z,49.92
2023-03-17T10:19:14.835Z,50.22
2023-03-17T10:20:14.819Z,48.93
2023-03-17T10:21:14.805Z,49.87
2023-03-17T10:22:14.813Z,49.84
2023-03-17T10:23:14.801Z,50.24
2023-03-17T10:24:14.773Z,49.16
2023-03-17T10:25:14.769Z,49.79
2023-03-17T10:26:14.840Z,51.18
2023-03-17T10:27:14.735Z,50.78
2023-03-17T10:28:14.764Z,52.09
2023-03-17T10:29:14.717Z,51.76
2023-03-17T10:30:14.696Z,51.48
2023-03-17T10:31:14.715Z,51.15
2023-03-17T10:32:14.666Z,50.67
2023-03-17T10:33:14.662Z,49.89
2023-03-17T10:34:14.722Z,50.09
2023-03-17T10:35:14.635Z,51.03
2023-03-17T10:36:14.675Z,51.43
2023-03-17T10:37:14.644Z,51.93
2023-03-17T10:38:14.871Z,53.02
2023-03-17T10:39:14.633Z,52.47
2023-03-17T10:40:14.589Z,51.33
2023-03-17T10:41:14.598Z,49.67
2023-03-17T10:42:14.590Z,48.84
2023-03-17T10:43:14.555Z,48.54
2023-03-17T10:44:14.546Z,49.75
2023-03-17T10:45:14.528Z,50.65
2023-03-17T10:46:14.547Z,49.24
2023-03-17T10:47:14.603Z,49.07
2023-03-17T10:48:14.502Z,49.57
2023-03-17T10:49:14.486Z,48.96
2023-03-17T10:50:14.498Z,50.27
2023-03-17T10:51:14.455Z,49.57
2023-03-17T10:52:14.458Z,49.77
2023-03-17T10:53:14.439Z,49.65
2023-03-17T10:54:14.445Z,48.52
2023-03-17T10:55:14.407Z,48.41
2023-03-17T10:56:14.421Z,48.39
2023-03-17T10:57:14.411Z,48.39
2023-03-17T10:58:14.439Z,48.19
2023-03-17T10:59:14.443Z,49.19
2023-03-17T11:00:14.399Z,49.30
2023-03-17T11:01:14.380Z,47.99
2023-03-17T11:02:14.384Z,48.69
2023-03-17T11:03:14.334Z,48.17
2023-03-17T11:04:14.399Z,48.67
2023-03-17T11:05:14.305Z,48.37
2023-03-17T11:06:14.307Z,47.34
2023-03-17T11:07:14.318Z,47.54
2023-03-17T11:08:14.293Z,47.44
2023-03-17T11:09:14.303Z,47.74
2023-03-17T11:10:14.255Z,47.06
2023-03-17T11:11:14.235Z,47.36
2023-03-17T11:12:14.261Z,47.59
2023-03-17T11:13:14.263Z,47.59
2023-03-17T11:14:14.225Z,47.61
2023-03-17T11:15:15.165Z,48.11
2023-03-17T11:16:14.232Z,48.61
2023-03-17T11:17:14.167Z,48.03
2023-03-17T11:18:14.170Z,48.36
2023-03-17T11:19:14.157Z,48.86
2023-03-17T11:20:14.147Z,49.19
2023-03-17T11:21:14.157Z,49.49
2023-03-17T11:22:14.173Z,49.49
2023-03-17T11:23:14.099Z,50.57
2023-03-17T11:24:14.132Z,50.68
2023-03-17T11:25:14.088Z,49.44
2023-03-17T11:26:14.092Z,48.94
2023-03-17T11:27:14.094Z,49.02
2023-03-17T11:28:14.089Z,48.01
2023-03-17T11:29:14.098Z,49.12
2023-03-17T11:30:14.921Z,48.39
2023-03-17T11:31:14.049Z,48.49
2023-03-17T11:32:14.009Z,48.19
2023-03-17T11:33:14.090Z,48.79
2023-03-17T11:34:14.001Z,48.49
2023-03-17T11:35:14.492Z,47.59
2023-03-17T11:36:13.991Z,47.19
2023-03-17T11:37:13.963Z,47.49
2023-03-17T11:38:13.940Z,47.41
2023-03-17T11:39:13.937Z,48.61
2023-03-17T11:40:13.953Z,48.14
2023-03-17T11:41:13.916Z,48.74
2023-03-17T11:42:13.900Z,48.94
2023-03-17T11:43:13.900Z,49.24
2023-03-17T11:44:13.901Z,49.04
2023-03-17T11:45:13.885Z,49.16
2023-03-17T11:46:13.892Z,48.36
2023-03-17T11:47:13.853Z,48.26
2023-03-17T11:48:13.851Z,49.09
2023-03-17T11:49:13.846Z,49.59
2023-03-17T11:50:13.821Z,48.91
2023-03-17T11:51:13.802Z,49.72
2023-03-17T11:52:13.796Z,50.22
2023-03-17T11:53:13.798Z,50.12
2023-03-17T11:54:13.789Z,49.92
2023-03-17T11:55:13.770Z,50.02
2023-03-17T11:56:13.742Z,49.62
2023-03-17T11:57:13.735Z,49.31
2023-03-17T11:58:13.734Z,49.99
2023-03-17T11:59:13.720Z,50.10
2023-03-17T12:00:13.709Z,50.37
2023-03-17T12:01:13.713Z,49.57
2023-03-17T12:02:13.693Z,49.79
2023-03-17T12:03:13.706Z,48.86
2023-03-17T12:04:13.686Z,49.27
2023-03-17T12:05:13.685Z,49.85
2023-03-17T12:06:13.651Z,49.82
2023-03-17T12:07:13.616Z,48.19
2023-03-17T12:08:13.601Z,47.49
2023-03-17T12:09:13.604Z,47.79
2023-03-17T12:10:13.589Z,46.96
2023-03-17T12:11:13.593Z,47.44
2023-03-17T12:12:15.821Z,48.05
2023-03-17T12:13:13.542Z,46.64
2023-03-17T12:14:13.530Z,47.24
2023-03-17T12:15:13.544Z,46.23
2023-03-17T12:16:13.617Z,46.41
2023-03-17T12:17:13.514Z,46.39
2023-03-17T12:18:13.512Z,46.49
2023-03-17T12:19:13.485Z,45.99
2023-03-17T12:20:13.466Z,45.79
2023-03-17T12:21:13.514Z,45.99
2023-03-17T12:22:13.464Z,45.61
2023-03-17T12:23:13.455Z,45.63
2023-03-17T12:24:13.430Z,46.66
2023-03-17T12:25:13.433Z,46.88
2023-03-17T12:26:13.407Z,46.48
2023-03-17T12:27:13.391Z,47.08
2023-03-17T12:28:13.394Z,47.69
2023-03-17T12:29:13.361Z,46.56
2023-03-17T12:30:13.357Z,46.26
2023-03-17T12:31:13.416Z,45.73
2023-03-17T12:32:13.338Z,46.03
2023-03-17T12:33:13.342Z,46.23
2023-03-17T12:34:13.299Z,46.44
2023-03-17T12:35:13.767Z,46.03
2023-03-17T12:36:13.342Z,46.34
2023-03-17T12:37:13.286Z,45.73
2023-03-17T12:38:13.288Z,46.41
2023-03-17T12:39:13.266Z,46.81
2023-03-17T12:40:13.226Z,46.41
2023-03-17T12:41:13.239Z,45.79
2023-03-17T12:42:13.218Z,45.69
2023-03-17T12:43:13.207Z,44.89
2023-03-17T12:44:13.219Z,45.39
2023-03-17T12:45:13.177Z,45.71
2023-03-17T12:46:13.244Z,46.44
2023-03-17T12:47:13.166Z,46.34
2023-03-17T12:48:13.185Z,45.73
2023-03-17T12:49:13.146Z,46.03
2023-03-17T12:50:13.146Z,46.56
2023-03-17T12:51:13.118Z,46.66
2023-03-17T12:52:13.130Z,45.65